createdAt,value
2023-04-22T00:01:54.991Z,29.95
2023-04-22T00:04:22.769Z,30.58
2023-04-22T00:06:50.531Z,30.00
2023-04-22T00:09:19.831Z,30.85
2023-04-22T00:11:48.107Z,30.05
2023-04-22T00:14:15.515Z,30.63
2023-04-22T00:16:42.986Z,30.90
2023-04-22T00:19:10.465Z,31.02
2023-04-22T00:21:37.899Z,30.95
2023-04-22T00:24:05.344Z,29.83
2023-04-22T00:26:32.765Z,30.75
2023-04-22T00:29:00.438Z,30.38
2023-04-22T00:31:27.965Z,30.73
2023-04-22T00:33:55.428Z,30.45
2023-04-22T00:36:23.051Z,30.25
2023-04-22T00:38:53.904Z,29.70
2023-04-22T00:41:21.742Z,30.38
2023-04-22T00:43:49.988Z,31.25
2023-04-22T00:46:17.503Z,30.77
2023-04-22T00:48:46.184Z,30.70
2023-04-22T00:51:13.555Z,30.58
2023-04-22T00:53:41.213Z,31.83
2023-04-22T00:56:08.890Z,29.95
2023-04-22T00:58:36.241Z,30.05
2023-04-22T01:01:03.660Z,30.63
2023-04-22T01:03:33.415Z,30.92
2023-04-22T01:10:09.320Z,30.27
2023-04-22T01:12:36.927Z,30.80
2023-04-22T01:15:05.159Z,30.38
2023-04-22T01:17:33.910Z,30.55
2023-04-22T01:20:04.067Z,29.83
2023-04-22T01:22:33.927Z,31.80
2023-04-22T01:25:01.649Z,29.80
2023-04-22T01:27:29.204Z,30.00
2023-04-22T01:29:56.909Z,30.55
2023-04-22T01:32:24.848Z,29.85
2023-04-22T01:34:52.712Z,29.83
2023-04-22T01:37:20.133Z,29.00
2023-04-22T01:39:48.391Z,28.55
2023-04-22T01:42:16.056Z,28.90
2023-04-22T01:44:43.413Z,29.10
2023-04-22T01:47:11.088Z,28.23
2023-04-22T01:49:38.662Z,28.25
2023-04-22T01:52:06.259Z,27.88
2023-04-22T01:54:34.077Z,28.35
2023-04-22T01:57:10.161Z,29.38
2023-04-22T01:59:38.610Z,27.98
2023-04-22T02:02:06.609Z,27.48
2023-04-22T02:04:34.046Z,27.02
2023-04-22T02:07:01.464Z,27.17
2023-04-22T02:09:28.928Z,25.58
2023-04-22T02:11:56.912Z,25.98
2023-04-22T02:14:24.231Z,26.35
2023-04-22T02:16:51.861Z,25.23
2023-04-22T02:19:19.218Z,26.52
2023-04-22T02:25:54.863Z,25.03
2023-04-22T02:28:22.640Z,26.13
2023-04-22T02:30:50.127Z,26.10
2023-04-22T02:33:17.561Z,27.15
2023-04-22T02:35:45.162Z,27.00
2023-04-22T02:38:17.127Z,27.65
2023-04-22T02:40:44.517Z,29.17
2023-04-22T02:43:12.789Z,28.35
2023-04-22T02:45:41.037Z,29.83
2023-04-22T02:48:08.918Z,29.45
2023-04-22T02:50:36.926Z,28.17
2023-04-22T02:53:04.382Z,30.33
2023-04-22T02:55:31.833Z,29.25
2023-04-22T02:57:59.246Z,28.63
2023-04-22T03:00:26.995Z,28.85
2023-04-22T03:02:55.821Z,29.63
2023-04-22T03:05:29.026Z,28.80
2023-04-22T03:07:56.592Z,28.17
2023-04-22T03:10:24.085Z,28.63
2023-04-22T03:12:51.750Z,28.27
2023-04-22T03:15:21.650Z,28.77
2023-04-22T03:17:49.725Z,27.50
2023-04-22T03:20:19.118Z,27.70
2023-04-22T03:22:46.527Z,27.03
2023-04-22T03:25:15.641Z,27.13
2023-04-22T03:27:48.878Z,27.37
2023-04-22T03:30:16.350Z,27.80
2023-04-22T03:32:43.792Z,27.13
2023-04-22T03:35:21.652Z,24.77
2023-04-22T03:37:51.079Z,28.43
2023-04-22T03:40:23.608Z,27.23
2023-04-22T03:42:51.024Z,27.30
2023-04-22T03:45:21.589Z,26.10
2023-04-22T03:47:59.387Z,28.33
2023-04-22T03:50:36.386Z,27.37
2023-04-22T03:53:04.063Z,26.93
2023-04-22T03:55:31.744Z,26.47
2023-04-22T03:57:59.275Z,27.77
2023-04-22T04:00:26.640Z,27.10
2023-04-22T04:03:06.819Z,24.43
2023-04-22T04:05:35.837Z,25.37
2023-04-22T04:08:04.084Z,26.03
2023-04-22T04:10:31.505Z,26.13
2023-04-22T04:13:00.710Z,25.87
2023-04-22T04:15:32.500Z,26.57
2023-04-22T04:18:01.410Z,26.27
2023-04-22T04:20:31.601Z,26.33
2023-04-22T04:22:59.512Z,26.17
2023-04-22T04:25:29.413Z,26.23
2023-04-22T04:27:56.947Z,25.27
2023-04-22T04:30:25.718Z,25.60
2023-04-22T04:32:55.344Z,24.57
2023-04-22T04:35:23.992Z,25.00
2023-04-22T04:42:04.077Z,23.53
2023-04-22T04:44:37.133Z,23.27
2023-04-22T04:47:07.012Z,22.20
2023-04-22T04:49:40.117Z,22.73
2023-04-22T04:52:10.336Z,22.63
2023-04-22T04:54:38.610Z,23.80
2023-04-22T04:57:06.635Z,22.67
2023-04-22T04:59:34.713Z,22.23
2023-04-22T05:02:02.656Z,22.93
2023-04-22T05:04:31.518Z,21.58
2023-04-22T05:06:59.272Z,22.30
2023-04-22T05:09:27.385Z,22.30
2023-04-22T05:11:55.028Z,22.38
2023-04-22T05:14:22.844Z,22.30
2023-04-22T05:16:50.431Z,21.50
2023-04-22T05:19:18.146Z,21.58
2023-04-22T05:21:47.643Z,21.48
2023-04-22T05:24:16.375Z,21.63
2023-04-22T05:26:44.240Z,21.67
2023-04-22T05:29:16.467Z,21.88
2023-04-22T05:31:44.227Z,21.08
2023-04-22T05:34:12.491Z,22.58
2023-04-22T05:36:40.521Z,20.40
2023-04-22T05:39:08.350Z,21.83
2023-04-22T05:41:36.295Z,20.73
2023-04-22T05:44:07.966Z,20.98
2023-04-22T05:46:35.558Z,21.02
2023-04-22T05:49:03.446Z,21.95
2023-04-22T05:51:49.331Z,21.45
2023-04-22T05:54:19.852Z,20.58
2023-04-22T05:56:47.614Z,21.75
2023-04-22T05:59:15.240Z,20.92
2023-04-22T06:01:42.844Z,20.00
2023-04-22T06:04:11.949Z,19.75
2023-04-22T06:06:40.155Z,20.98
2023-04-22T06:09:07.714Z,19.02
2023-04-22T06:11:35.170Z,17.98
2023-04-22T06:14:02.619Z,18.88
2023-04-22T06:16:31.525Z,18.65
2023-04-22T06:18:59.398Z,18.15
2023-04-22T06:26:07.138Z,18.63
2023-04-22T06:28:36.314Z,17.73
2023-04-22T06:31:08.914Z,18.17
2023-04-22T06:33:37.033Z,17.40
2023-04-22T06:36:05.187Z,17.30
2023-04-22T06:42:38.913Z,16.73
2023-04-22T06:45:25.930Z,17.48
2023-04-22T06:48:02.525Z,16.13
2023-04-22T06:50:45.208Z,15.48
2023-04-22T06:53:12.717Z,13.60
2023-04-22T06:55:41.258Z,13.32
2023-04-22T06:58:08.924Z,12.43
2023-04-22T07:00:36.335Z,13.88
2023-04-22T07:03:03.818Z,14.30
2023-04-22T07:05:32.260Z,14.07
2023-04-22T07:08:00.689Z,14.73
2023-04-22T07:10:28.384Z,17.30
2023-04-22T07:13:21.817Z,17.52
2023-04-22T07:15:49.256Z,16.35
2023-04-22T07:18:16.669Z,17.00
2023-04-22T07:20:44.138Z,16.58
2023-04-22T07:23:11.595Z,17.17
2023-04-22T07:25:39.240Z,16.55
2023-04-22T07:28:06.596Z,17.33
2023-04-22T07:30:34.188Z,16.80
2023-04-22T07:33:01.668Z,16.67
2023-04-22T07:35:29.951Z,16.77
2023-04-22T07:37:57.500Z,17.15
2023-04-22T07:40:24.992Z,17.52
2023-04-22T07:42:52.525Z,17.35
2023-04-22T07:45:20.242Z,16.38
2023-04-22T07:47:47.706Z,17.15
2023-04-22T07:50:15.204Z,16.00
2023-04-22T07:52:42.561Z,16.58
2023-04-22T07:55:10.150Z,16.05
2023-04-22T07:57:39.280Z,16.38
2023-04-22T08:00:07.935Z,16.00
2023-04-22T08:02:41.980Z,15.82
2023-04-22T08:05:09.641Z,15.07
2023-04-22T08:07:37.073Z,14.95
2023-04-22T08:10:04.722Z,14.55
2023-04-22T08:12:32.144Z,15.55
2023-04-22T08:14:59.594Z,14.85
2023-04-22T08:17:27.363Z,14.63
2023-04-22T08:19:54.947Z,14.07
2023-04-22T08:22:24.228Z,13.95
2023-04-22T08:28:59.491Z,13.20
2023-04-22T08:31:27.092Z,13.40
2023-04-22T08:33:54.539Z,12.18
2023-04-22T08:36:23.680Z,11.05
2023-04-22T08:38:51.378Z,9.55
2023-04-22T08:41:19.315Z,9.35
2023-04-22T08:43:47.092Z,10.20
2023-04-22T08:46:15.931Z,10.20
2023-04-22T08:48:43.363Z,9.35
2023-04-22T08:51:11.028Z,9.00
2023-04-22T08:53:38.453Z,9.27
2023-04-22T08:56:06.423Z,9.18
2023-04-22T08:58:35.548Z,8.10
2023-04-22T09:01:04.206Z,7.78
2023-04-22T09:03:31.873Z,7.15
2023-04-22T09:06:00.479Z,6.25
2023-04-22T09:08:28.376Z,6.20
2023-04-22T09:10:58.183Z,6.95
2023-04-22T09:13:30.110Z,6.57
2023-04-22T09:16:01.345Z,6.90
2023-04-22T09:18:32.314Z,7.15
2023-04-22T09:21:03.280Z,7.00
2023-04-22T09:23:34.796Z,6.70
2023-04-22T09:26:05.826Z,7.25
2023-04-22T09:28:37.918Z,7.30
2023-04-22T09:31:05.654Z,7.53
2023-04-22T09:33:34.951Z,7.38
2023-04-22T09:36:09.432Z,7.00
2023-04-22T09:38:36.791Z,7.25
2023-04-22T09:41:09.969Z,6.80
2023-04-22T09:43:38.894Z,6.60
2023-04-22T09:46:09.414Z,7.20
2023-04-22T09:48:43.701Z,7.05
2023-04-22T09:51:20.518Z,6.57
2023-04-22T09:54:09.184Z,6.60
2023-04-22T09:56:48.868Z,6.80
2023-04-22T09:59:23.563Z,7.65
2023-04-22T10:01:57.472Z,6.97
2023-04-22T10:04:25.988Z,6.93
2023-04-22T10:06:54.390Z,6.55
2023-04-22T10:09:23.070Z,6.70
2023-04-22T10:11:54.538Z,6.72
2023-04-22T10:14:23.102Z,6.15
2023-04-22T10:16:53.017Z,6.40
2023-04-22T10:19:24.445Z,6.13
2023-04-22T10:22:00.690Z,6.63
2023-04-22T10:24:29.783Z,6.28
2023-04-22T10:27:04.696Z,6.63
2023-04-22T10:29:40.048Z,6.93
2023-04-22T10:32:25.151Z,6.07
2023-04-22T10:35:07.869Z,6.40
2023-04-22T10:37:36.247Z,6.68
2023-04-22T10:40:22.938Z,7.28
2023-04-22T10:42:52.209Z,6.72
2023-04-22T10:45:20.308Z,6.18
2023-04-22T10:47:48.129Z,6.63
2023-04-22T10:50:17.914Z,6.60
2023-04-22T10:52:53.257Z,6.20
2023-04-22T10:55:24.484Z,5.97
2023-04-22T10:57:54.188Z,6.32
2023-04-22T11:00:21.856Z,5.78
2023-04-22T11:03:09.849Z,6.20
2023-04-22T11:05:38.379Z,6.13
2023-04-22T11:08:08.776Z,6.03
2023-04-22T11:10:44.819Z,5.85
2023-04-22T11:13:21.541Z,5.70
2023-04-22T11:15:51.530Z,5.80
2023-04-22T11:18:20.637Z,5.72
2023-04-22T11:20:50.139Z,5.72
2023-04-22T11:23:29.266Z,5.47
2023-04-22T11:26:00.768Z,5.00
2023-04-22T11:28:29.384Z,5.20
2023-04-22T11:31:12.073Z,5.60
2023-04-22T11:33:42.695Z,4.85
2023-04-22T11:36:12.846Z,5.07
2023-04-22T11:38:40.860Z,5.15
2023-04-22T11:41:11.497Z,4.90
2023-04-22T11:43:50.709Z,4.90
2023-04-22T11:46:28.780Z,4.60
2023-04-22T11:49:11.728Z,4.70
2023-04-22T11:51:52.041Z,5.18
2023-04-22T11:58:20.971Z,5.10
2023-04-22T12:00:49.130Z,4.53
2023-04-22T12:03:18.369Z,4.60
2023-04-22T12:05:47.136Z,4.78
2023-04-22T12:08:16.254Z,4.63
2023-04-22T12:15:13.744Z,4.68
2023-04-22T12:17:41.692Z,4.63
2023-04-22T12:20:13.737Z,4.55
2023-04-22T12:22:42.369Z,4.35
2023-04-22T12:25:10.621Z,3.90
2023-04-22T12:27:40.084Z,4.18
2023-04-22T12:30:12.179Z,4.15
2023-04-22T12:32:41.002Z,4.95
2023-04-22T12:35:11.458Z,4.30
2023-04-22T12:37:39.927Z,4.20
2023-04-22T12:40:09.084Z,4.47
2023-04-22T12:42:37.960Z,4.00
2023-04-22T12:45:05.997Z,4.30
2023-04-22T12:47:33.784Z,4.05
2023-04-22T12:50:06.382Z,4.63
2023-04-22T12:52:34.767Z,4.90
2023-04-22T12:55:02.219Z,4.43
2023-04-22T12:57:29.743Z,4.55
2023-04-22T12:59:57.382Z,4.60
2023-04-22T13:02:24.965Z,5.15
2023-04-22T13:04:53.291Z,5.00
2023-04-22T13:07:21.401Z,4.90
2023-04-22T13:09:48.931Z,5.53
2023-04-22T13:16:34.741Z,4.90
2023-04-22T13:19:02.383Z,5.07
2023-04-22T13:21:31.940Z,5.20
2023-04-22T13:24:02.424Z,4.97
2023-04-22T13:26:31.504Z,5.00
2023-04-22T13:29:00.884Z,5.47
2023-04-22T13:31:30.012Z,5.35
2023-04-22T13:33:57.399Z,5.28
2023-04-22T13:36:24.861Z,5.32
2023-04-22T13:38:52.338Z,5.35
2023-04-22T13:41:19.678Z,5.15
2023-04-22T13:43:51.859Z,5.25
2023-04-22T13:46:19.276Z,5.65
2023-04-22T13:48:46.821Z,5.28
2023-04-22T13:51:14.224Z,5.30
2023-04-22T13:53:41.551Z,4.70
2023-04-22T13:56:08.969Z,4.90
2023-04-22T13:58:36.448Z,5.25
2023-04-22T14:01:04.301Z,5.07
2023-04-22T14:03:31.709Z,5.30
2023-04-22T14:05:59.450Z,4.70
2023-04-22T14:08:26.776Z,5.28
2023-04-22T14:10:55.449Z,5.00
2023-04-22T14:13:23.688Z,4.80
2023-04-22T14:15:51.351Z,4.88
2023-04-22T14:18:18.733Z,5.03
2023-04-22T14:20:46.273Z,5.13
2023-04-22T14:23:13.618Z,4.78
2023-04-22T14:25:40.977Z,5.00
2023-04-22T14:28:08.466Z,5.15
2023-04-22T14:30:35.912Z,4.72
2023-04-22T14:33:06.992Z,4.97
2023-04-22T14:35:35.407Z,4.68
2023-04-22T14:38:03.895Z,5.05
2023-04-22T14:40:31.511Z,5.03
2023-04-22T14:42:59.789Z,5.40
2023-04-22T14:45:28.780Z,4.80
2023-04-22T14:47:56.562Z,4.95
2023-04-22T14:50:23.991Z,4.85
2023-04-22T14:52:51.498Z,5.07
2023-04-22T14:55:23.235Z,4.72
2023-04-22T15:02:15.952Z,4.75
2023-04-22T15:04:44.329Z,4.75
2023-04-22T15:07:11.770Z,5.00
2023-04-22T15:09:39.412Z,4.82
2023-04-22T15:12:07.223Z,4.85
2023-04-22T15:14:35.711Z,4.90
2023-04-22T15:17:03.353Z,5.05
2023-04-22T15:19:30.693Z,5.28
2023-04-22T15:21:58.327Z,4.53
2023-04-22T15:24:25.819Z,4.80
2023-04-22T15:26:53.684Z,4.90
2023-04-22T15:29:21.559Z,4.50
2023-04-22T15:31:48.999Z,4.97
2023-04-22T15:34:16.384Z,4.60
2023-04-22T15:36:43.839Z,4.60
2023-04-22T15:39:12.329Z,4.43
2023-04-22T15:41:39.807Z,4.47
2023-04-22T15:44:08.765Z,4.82
2023-04-22T15:46:37.575Z,4.38
2023-04-22T15:49:05.279Z,4.32
2023-04-22T15:51:32.676Z,4.88
2023-04-22T15:54:00.799Z,4.80
2023-04-22T15:56:29.507Z,4.85
2023-04-22T15:58:56.882Z,4.70
2023-04-22T16:01:24.239Z,5.00
2023-04-22T16:03:51.925Z,5.03
2023-04-22T16:06:19.969Z,4.47
2023-04-22T16:08:47.357Z,4.93
2023-04-22T16:11:15.393Z,4.78
2023-04-22T16:13:42.919Z,4.60
2023-04-22T16:16:11.159Z,4.80
2023-04-22T16:18:38.709Z,4.50
2023-04-22T16:21:06.220Z,4.60
2023-04-22T16:23:34.711Z,4.50
2023-04-22T16:26:04.518Z,4.90
2023-04-22T16:32:50.866Z,4.50
2023-04-22T16:35:18.294Z,4.40
2023-04-22T16:37:45.654Z,4.60
2023-04-22T16:40:13.133Z,4.63
2023-04-22T16:42:40.700Z,4.60
2023-04-22T16:45:09.567Z,4.75
2023-04-22T16:47:36.930Z,4.65
2023-04-22T16:50:04.638Z,4.30
2023-04-22T16:52:32.078Z,4.75
2023-04-22T16:55:00.523Z,4.70
2023-04-22T16:57:27.858Z,4.57
2023-04-22T16:59:55.255Z,5.00
2023-04-22T17:02:22.818Z,5.05
2023-04-22T17:04:50.294Z,4.53
2023-04-22T17:07:17.764Z,4.72
2023-04-22T17:09:45.194Z,4.72
2023-04-22T17:12:12.614Z,4.88
2023-04-22T17:14:40.230Z,4.25
2023-04-22T17:17:07.761Z,4.80
2023-04-22T17:19:36.643Z,4.57
2023-04-22T17:22:04.110Z,4.88
2023-04-22T17:24:31.666Z,5.00
2023-04-22T17:26:58.986Z,5.00
2023-04-22T17:29:26.595Z,5.20
2023-04-22T17:31:54.069Z,5.18
2023-04-22T17:34:21.596Z,5.10
2023-04-22T17:36:48.861Z,5.28
2023-04-22T17:39:16.324Z,5.28
2023-04-22T17:41:44.495Z,5.30
2023-04-22T17:48:29.903Z,5.30
2023-04-22T17:50:57.300Z,5.75
2023-04-22T17:53:24.700Z,5.10
2023-04-22T17:55:52.053Z,5.68
2023-04-22T17:58:19.412Z,5.35
2023-04-22T18:00:46.901Z,5.30
2023-04-22T18:03:14.822Z,5.85
2023-04-22T18:05:44.599Z,5.45
2023-04-22T18:08:11.999Z,5.60
2023-04-22T18:10:39.663Z,5.70
2023-04-22T18:13:07.316Z,6.18
2023-04-22T18:15:34.790Z,6.05
2023-04-22T18:18:02.200Z,5.90
2023-04-22T18:20:29.647Z,5.60
2023-04-22T18:22:57.043Z,5.55
2023-04-22T18:25:25.900Z,5.90
2023-04-22T18:27:55.200Z,6.80
2023-04-22T18:30:23.745Z,7.10
2023-04-22T18:32:51.765Z,6.20
2023-04-22T18:35:20.152Z,6.70
2023-04-22T18:37:47.859Z,6.60
2023-04-22T18:40:15.331Z,6.40
2023-04-22T18:42:44.932Z,5.80
2023-04-22T18:45:12.721Z,6.70
2023-04-22T18:47:40.217Z,6.97
2023-04-22T18:50:08.201Z,6.30
2023-04-22T18:52:35.783Z,6.82
2023-04-22T18:55:03.506Z,6.88
2023-04-22T18:57:31.192Z,6.28
2023-04-22T18:59:58.528Z,7.05
2023-04-22T19:02:26.112Z,6.78
2023-04-22T19:04:56.413Z,6.47
2023-04-22T19:07:23.953Z,7.05
2023-04-22T19:09:51.361Z,6.82
2023-04-22T19:12:19.712Z,6.68
2023-04-22T19:18:55.146Z,6.60
2023-04-22T19:21:22.859Z,6.35
2023-04-22T19:23:53.172Z,6.30
2023-04-22T19:26:22.051Z,5.97
2023-04-22T19:28:49.525Z,7.05
2023-04-22T19:31:17.741Z,8.43
2023-04-22T19:33:45.566Z,8.65
2023-04-22T19:36:12.986Z,11.18
2023-04-22T19:38:40.495Z,11.63
2023-04-22T19:41:09.076Z,10.55
2023-04-22T19:43:37.933Z,10.98
2023-04-22T19:46:05.512Z,11.32
2023-04-22T19:48:33.149Z,11.00
2023-04-22T19:51:01.118Z,10.60
2023-04-22T19:53:31.012Z,10.75
2023-04-22T19:55:58.718Z,10.20
2023-04-22T19:58:28.549Z,10.02
2023-04-22T20:00:56.278Z,9.48
2023-04-22T20:03:24.185Z,9.70
2023-04-22T20:05:52.201Z,9.48
2023-04-22T20:08:20.094Z,9.13
2023-04-22T20:10:49.694Z,8.25
2023-04-22T20:13:18.024Z,8.20
2023-04-22T20:15:45.562Z,8.27
2023-04-22T20:18:13.128Z,8.70
2023-04-22T20:20:48.276Z,7.88
2023-04-22T20:23:15.879Z,8.48
2023-04-22T20:25:47.164Z,8.40
2023-04-22T20:28:14.774Z,8.25
2023-04-22T20:30:42.290Z,8.98
2023-04-22T20:33:12.270Z,9.35
2023-04-22T20:35:40.403Z,9.63
2023-04-22T20:38:08.967Z,10.07
2023-04-22T20:40:36.429Z,10.75
2023-04-22T20:43:03.825Z,11.35
2023-04-22T20:49:50.152Z,14.02
2023-04-22T20:52:17.776Z,13.50
2023-04-22T20:54:45.430Z,13.40
2023-04-22T20:57:13.081Z,13.20
2023-04-22T20:59:40.669Z,13.20
2023-04-22T21:02:09.081Z,13.70
2023-04-22T21:04:37.188Z,13.60
2023-04-22T21:07:07.958Z,13.32
2023-04-22T21:09:35.706Z,14.38
2023-04-22T21:12:03.807Z,13.20
2023-04-22T21:14:31.540Z,13.90
2023-04-22T21:17:01.731Z,14.57
2023-04-22T21:19:33.194Z,14.50
2023-04-22T21:22:05.451Z,14.52
2023-04-22T21:24:35.168Z,15.20
2023-04-22T21:27:03.100Z,14.63
2023-04-22T21:29:30.709Z,15.73
2023-04-22T21:32:08.190Z,15.57
2023-04-22T21:34:36.531Z,15.77
2023-04-22T21:37:04.901Z,15.98
2023-04-22T21:39:32.335Z,15.52
2023-04-22T21:41:59.788Z,16.20
2023-04-22T21:44:27.109Z,16.25
2023-04-22T21:46:54.529Z,16.48
2023-04-22T21:49:23.130Z,16.48
2023-04-22T21:51:50.797Z,16.38
2023-04-22T21:54:18.364Z,17.42
2023-04-22T21:56:45.821Z,17.85
2023-04-22T21:59:13.179Z,17.30
2023-04-22T22:01:40.746Z,17.90
2023-04-22T22:04:08.148Z,18.15
2023-04-22T22:06:35.865Z,17.52
2023-04-22T22:09:03.324Z,18.25
2023-04-22T22:11:31.573Z,18.92
2023-04-22T22:13:59.722Z,18.58
2023-04-22T22:16:27.185Z,18.95
2023-04-22T22:18:55.829Z,18.85
2023-04-22T22:21:24.037Z,18.08
2023-04-22T22:23:51.867Z,18.92
2023-04-22T22:26:19.402Z,19.38
2023-04-22T22:28:47.162Z,18.80
2023-04-22T22:35:23.140Z,18.17
2023-04-22T22:37:50.622Z,17.92
2023-04-22T22:40:18.137Z,18.45
2023-04-22T22:42:45.601Z,18.75
2023-04-22T22:45:13.034Z,19.27
2023-04-22T22:47:40.544Z,19.40
2023-04-22T22:50:08.331Z,19.98
2023-04-22T22:52:35.812Z,19.38
2023-04-22T22:55:03.386Z,20.25
2023-04-22T22:57:30.805Z,19.52
2023-04-22T22:59:58.247Z,18.83
2023-04-22T23:02:26.620Z,18.40
2023-04-22T23:04:54.337Z,19.95
2023-04-22T23:07:22.418Z,20.38
2023-04-22T23:09:49.771Z,22.05
2023-04-22T23:12:17.319Z,21.38
2023-04-22T23:14:44.789Z,20.98
2023-04-22T23:17:12.193Z,20.33
2023-04-22T23:19:40.021Z,19.38
2023-04-22T23:22:07.857Z,19.85
2023-04-22T23:24:35.414Z,19.38
2023-04-22T23:27:03.118Z,19.92
2023-04-22T23:29:30.980Z,18.40
2023-04-22T23:32:01.018Z,19.83
2023-04-22T23:34:29.949Z,19.23
2023-04-22T23:36:58.520Z,18.45
2023-04-22T23:39:25.860Z,20.95
2023-04-22T23:41:53.212Z,21.02
2023-04-22T23:44:20.999Z,21.55
2023-04-22T23:50:56.229Z,19.90
2023-04-22T23:53:23.555Z,20.58
2023-04-22T23:55:51.729Z,22.48
2023-04-22T23:58:19.179Z,22.08
